createdAt,value
2023-02-06T00:02:01.301Z,-5.51
2023-02-06T00:04:03.414Z,-5.47
2023-02-06T00:06:05.341Z,-5.64
2023-02-06T00:08:06.782Z,-5.42
2023-02-06T00:10:08.676Z,-5.36
2023-02-06T00:12:10.286Z,-5.37
2023-02-06T00:14:11.732Z,-5.42
2023-02-06T00:16:18.587Z,-5.25
2023-02-06T00:18:20.443Z,-5.39
2023-02-06T00:20:21.965Z,-5.27
2023-02-06T00:22:23.357Z,-5.27
2023-02-06T00:24:25.033Z,-5.42
2023-02-06T00:26:27.499Z,-5.15
2023-02-06T00:28:28.980Z,-5.05
2023-02-06T00:30:30.674Z,-5.08
2023-02-06T00:32:32.197Z,-5.12
2023-02-06T00:34:33.593Z,-5.40
2023-02-06T00:36:35.298Z,-5.37
2023-02-06T00:38:37.993Z,-5.30
2023-02-06T00:40:39.598Z,-5.30
2023-02-06T00:42:41.084Z,-4.95
2023-02-06T00:44:42.512Z,-5.11
2023-02-06T00:46:43.939Z,-5.34
2023-02-06T00:48:45.770Z,-5.37
2023-02-06T00:50:50.945Z,-5.29
2023-02-06T00:52:52.460Z,-5.19
2023-02-06T00:54:54.153Z,-5.35
2023-02-06T00:56:55.589Z,-5.55
2023-02-06T00:58:57.087Z,-5.38
2023-02-06T01:00:58.848Z,-5.57
2023-02-06T01:03:02.819Z,-5.41
2023-02-06T01:05:04.806Z,-5.35
2023-02-06T01:07:06.499Z,-5.09
2023-02-06T01:09:07.907Z,-5.17
2023-02-06T01:11:13.377Z,-5.22
2023-02-06T01:13:14.867Z,-5.26
2023-02-06T01:15:16.523Z,-5.38
2023-02-06T01:17:17.984Z,-5.37
2023-02-06T01:19:19.650Z,-5.08
2023-02-06T01:21:23.780Z,-5.13
2023-02-06T01:23:25.193Z,-5.02
2023-02-06T01:25:26.911Z,-5.06
2023-02-06T01:27:29.240Z,-5.20
2023-02-06T01:29:30.636Z,-5.12
2023-02-06T01:31:32.542Z,-5.27
2023-02-06T01:33:37.323Z,-5.03
2023-02-06T01:35:38.735Z,-5.21
2023-02-06T01:37:41.188Z,-5.34
2023-02-06T01:39:42.698Z,-5.63
2023-02-06T01:41:44.123Z,-5.47
2023-02-06T01:44:08.498Z,-5.44
2023-02-06T01:46:10.706Z,-5.53
2023-02-06T01:48:20.909Z,-5.43
2023-02-06T01:50:22.915Z,-5.30
2023-02-06T01:52:27.644Z,-5.50
2023-02-06T01:54:29.127Z,-5.46
2023-02-06T01:56:40.433Z,-5.65
2023-02-06T01:58:44.724Z,-5.64
2023-02-06T02:00:46.370Z,-5.59
2023-02-06T02:02:49.492Z,-5.60
2023-02-06T02:04:51.226Z,-5.46
2023-02-06T02:07:15.213Z,-5.43
2023-02-06T02:09:18.655Z,-5.57
2023-02-06T02:11:28.147Z,-5.52
2023-02-06T02:13:29.590Z,-5.55
2023-02-06T02:15:52.665Z,-5.50
2023-02-06T02:18:21.410Z,-5.35
2023-02-06T02:20:41.724Z,-5.65
2023-02-06T02:23:16.717Z,-5.38
2023-02-06T02:25:54.605Z,-5.30
2023-02-06T02:28:27.100Z,-5.28
2023-02-06T02:30:50.097Z,-5.35
2023-02-06T02:32:59.771Z,-5.28
2023-02-06T02:35:35.498Z,-5.19
2023-02-06T02:37:49.361Z,-5.16
2023-02-06T02:39:56.999Z,-5.09
2023-02-06T02:42:37.055Z,-5.07
2023-02-06T02:44:55.507Z,-5.12
2023-02-06T02:47:02.091Z,-5.16
2023-02-06T02:49:09.352Z,-5.08
2023-02-06T02:51:11.557Z,-5.29
2023-02-06T02:53:13.965Z,-5.05
2023-02-06T02:55:21.686Z,-5.09
2023-02-06T02:57:28.907Z,-5.26
2023-02-06T02:59:39.711Z,-5.15
2023-02-06T03:01:47.986Z,-5.32
2023-02-06T03:03:54.404Z,-5.16
2023-02-06T03:06:22.478Z,-5.15
2023-02-06T03:08:32.275Z,-5.17
2023-02-06T03:10:44.670Z,-5.78
2023-02-06T03:13:07.761Z,-5.27
2023-02-06T03:15:12.371Z,-5.15
2023-02-06T03:17:18.361Z,-5.32
2023-02-06T03:19:48.049Z,-5.15
2023-02-06T03:21:50.252Z,-5.60
2023-02-06T03:23:56.002Z,-5.71
2023-02-06T03:26:02.889Z,-5.46
2023-02-06T03:28:14.070Z,-5.58
2023-02-06T03:30:16.586Z,-5.30
2023-02-06T03:32:28.364Z,-5.19
2023-02-06T03:34:44.562Z,-5.10
2023-02-06T03:36:46.476Z,-5.13
2023-02-06T03:38:50.920Z,-5.10
2023-02-06T03:40:54.546Z,-5.39
2023-02-06T03:42:59.798Z,-5.32
2023-02-06T03:45:06.182Z,-5.18
2023-02-06T03:47:11.526Z,-5.53
2023-02-06T03:49:16.674Z,-5.89
2023-02-06T03:51:24.483Z,-5.83
2023-02-06T03:53:26.400Z,-5.64
2023-02-06T03:55:27.938Z,-5.36
2023-02-06T03:57:32.582Z,-5.32
2023-02-06T03:59:34.197Z,-5.49
2023-02-06T04:01:40.716Z,-5.27
2023-02-06T04:03:42.410Z,-5.48
2023-02-06T04:05:43.934Z,-5.75
2023-02-06T04:07:45.627Z,-5.92
2023-02-06T04:09:47.287Z,-5.98
2023-02-06T04:11:48.804Z,-5.61
2023-02-06T04:13:50.244Z,-5.70
2023-02-06T04:15:51.826Z,-5.60
2023-02-06T04:18:00.328Z,-5.42
2023-02-06T04:20:02.346Z,-5.52
2023-02-06T04:22:04.834Z,-5.58
2023-02-06T04:24:06.595Z,-5.65
2023-02-06T04:26:08.023Z,-5.78
2023-02-06T04:28:09.685Z,-5.52
2023-02-06T04:30:11.866Z,-5.47
2023-02-06T04:32:13.343Z,-5.35
2023-02-06T04:34:14.764Z,-5.14
2023-02-06T04:36:16.169Z,-4.96
2023-02-06T04:38:17.623Z,-5.02
2023-02-06T04:40:19.269Z,-5.26
2023-02-06T04:42:20.760Z,-5.25
2023-02-06T04:44:23.083Z,-5.01
2023-02-06T04:46:25.669Z,-5.61
2023-02-06T04:48:27.324Z,-5.14
2023-02-06T04:50:28.814Z,-5.00
2023-02-06T04:52:30.478Z,-5.09
2023-02-06T04:54:32.857Z,-5.24
2023-02-06T04:56:34.379Z,-5.07
2023-02-06T04:58:37.368Z,-4.72
2023-02-06T05:00:38.950Z,-4.76
2023-02-06T05:02:40.402Z,-5.02
2023-02-06T05:04:41.927Z,-5.15
2023-02-06T05:06:43.829Z,-5.03
2023-02-06T05:08:45.257Z,-5.20
2023-02-06T05:10:46.794Z,-4.89
2023-02-06T05:12:48.577Z,-4.80
2023-02-06T05:14:50.100Z,-5.01
2023-02-06T05:16:51.704Z,-5.04
2023-02-06T05:18:57.013Z,-4.82
2023-02-06T05:20:58.414Z,-4.80
2023-02-06T05:22:59.999Z,-4.68
2023-02-06T05:25:01.983Z,-4.99
2023-02-06T05:27:06.438Z,-4.95
2023-02-06T05:29:08.185Z,-4.80
2023-02-06T05:31:10.022Z,-4.68
2023-02-06T05:33:11.474Z,-4.44
2023-02-06T05:35:13.032Z,-4.43
2023-02-06T05:37:14.607Z,-4.52
2023-02-06T05:39:16.028Z,-4.25
2023-02-06T05:41:18.575Z,-4.38
2023-02-06T05:43:20.188Z,-4.56
2023-02-06T05:45:21.585Z,-4.37
2023-02-06T05:47:23.345Z,-4.37
2023-02-06T05:49:24.928Z,-4.69
2023-02-06T05:51:26.383Z,-4.65
2023-02-06T05:53:27.799Z,-4.16
2023-02-06T05:55:29.449Z,-4.36
2023-02-06T05:57:30.855Z,-4.20
2023-02-06T05:59:32.666Z,-3.98
2023-02-06T06:01:34.156Z,-3.95
2023-02-06T06:03:35.626Z,-3.85
2023-02-06T06:05:37.411Z,-4.08
2023-02-06T06:07:39.220Z,-4.01
2023-02-06T06:09:40.632Z,-4.21
2023-02-06T06:11:42.276Z,-3.94
2023-02-06T06:13:43.796Z,-4.03
2023-02-06T06:15:45.230Z,-3.79
2023-02-06T06:17:46.752Z,-3.62
2023-02-06T06:19:48.224Z,-3.78
2023-02-06T06:21:49.709Z,-3.57
2023-02-06T06:23:51.298Z,-3.70
2023-02-06T06:25:52.837Z,-3.67
2023-02-06T06:27:54.324Z,-3.81
2023-02-06T06:29:55.961Z,-3.53
2023-02-06T06:31:58.195Z,-3.61
2023-02-06T06:33:59.602Z,-3.63
2023-02-06T06:36:01.096Z,-3.55
2023-02-06T06:38:02.543Z,-3.23
2023-02-06T06:40:04.254Z,-3.22
2023-02-06T06:42:05.751Z,-3.27
2023-02-06T06:44:07.198Z,-3.31
2023-02-06T06:46:08.957Z,-3.37
2023-02-06T06:48:10.523Z,-3.11
2023-02-06T06:50:12.009Z,-3.32
2023-02-06T06:52:23.272Z,-3.23
2023-02-06T06:54:26.222Z,-3.30
2023-02-06T06:56:27.654Z,-3.38
2023-02-06T06:58:29.052Z,-3.40
2023-02-06T07:00:30.617Z,-3.22
2023-02-06T07:02:32.108Z,-3.20
2023-02-06T07:04:33.659Z,-3.54
2023-02-06T07:06:35.077Z,-3.27
2023-02-06T07:08:37.242Z,-3.34
2023-02-06T07:10:38.688Z,-2.96
2023-02-06T07:12:40.292Z,-2.79
2023-02-06T07:14:41.694Z,-2.74
2023-02-06T07:16:43.099Z,-2.65
2023-02-06T07:18:44.556Z,-2.56
2023-02-06T07:20:46.147Z,-2.81
2023-02-06T07:22:47.935Z,-2.82
2023-02-06T07:24:49.616Z,-2.79
2023-02-06T07:26:51.131Z,-2.88
2023-02-06T07:28:52.542Z,-3.15
2023-02-06T07:30:54.672Z,-3.13
2023-02-06T07:32:56.502Z,-3.00
2023-02-06T07:34:57.888Z,-3.27
2023-02-06T07:36:59.501Z,-3.35
2023-02-06T07:39:03.095Z,-3.02
2023-02-06T07:41:04.455Z,-2.77
2023-02-06T07:43:07.281Z,-3.23
2023-02-06T07:45:09.236Z,-2.76
2023-02-06T07:47:10.642Z,-3.02
2023-02-06T07:49:12.924Z,-3.21
2023-02-06T07:51:14.666Z,-2.95
2023-02-06T07:53:16.061Z,-2.86
2023-02-06T07:55:17.742Z,-2.79
2023-02-06T07:57:20.027Z,-2.47
2023-02-06T07:59:21.505Z,-2.42
2023-02-06T08:01:23.647Z,-2.25
2023-02-06T08:03:25.257Z,-2.33
2023-02-06T08:05:26.673Z,-2.23
2023-02-06T08:07:28.158Z,-2.13
2023-02-06T08:09:29.844Z,-2.20
2023-02-06T08:11:31.301Z,-2.14
2023-02-06T08:13:32.852Z,-1.90
2023-02-06T08:15:34.722Z,-1.77
2023-02-06T08:17:36.322Z,-1.94
2023-02-06T08:19:37.754Z,-1.67
2023-02-06T08:21:39.263Z,-1.76
2023-02-06T08:23:41.306Z,-1.46
2023-02-06T08:25:42.966Z,-1.81
2023-02-06T08:27:44.511Z,-1.07
2023-02-06T08:29:46.134Z,-0.87
2023-02-06T08:31:47.964Z,-0.67
2023-02-06T08:33:50.175Z,-1.17
2023-02-06T08:35:51.549Z,-0.83
2023-02-06T08:37:53.123Z,-0.49
2023-02-06T08:39:54.594Z,-0.73
2023-02-06T08:41:56.115Z,-1.26
2023-02-06T08:43:59.800Z,-1.19
2023-02-06T08:46:01.473Z,-1.34
2023-02-06T08:48:03.104Z,-1.56
2023-02-06T08:50:04.981Z,-1.61
2023-02-06T08:52:06.461Z,-1.45
2023-02-06T08:54:12.832Z,-1.12
2023-02-06T08:56:14.466Z,-1.10
2023-02-06T08:58:16.068Z,-1.00
2023-02-06T09:00:17.845Z,-0.87
2023-02-06T09:02:19.465Z,-0.51
2023-02-06T09:04:21.362Z,-0.60
2023-02-06T09:06:23.075Z,-0.40
2023-02-06T09:08:24.645Z,-0.44
2023-02-06T09:10:28.040Z,-0.78
2023-02-06T09:12:29.738Z,-0.65
2023-02-06T09:14:31.710Z,-0.68
2023-02-06T09:16:33.984Z,-0.58
2023-02-06T09:18:36.093Z,-0.41
2023-02-06T09:20:37.524Z,-0.56
2023-02-06T09:22:39.014Z,-0.61
2023-02-06T09:24:40.567Z,-0.64
2023-02-06T09:26:58.608Z,-0.90
2023-02-06T09:29:03.275Z,-0.63
2023-02-06T09:31:04.945Z,-0.57
2023-02-06T09:33:06.514Z,-0.75
2023-02-06T09:35:08.227Z,-0.55
2023-02-06T09:37:09.642Z,-0.30
2023-02-06T09:39:11.129Z,-0.46
2023-02-06T09:41:22.393Z,-0.02
2023-02-06T09:43:24.080Z,0.37
2023-02-06T09:45:28.942Z,0.64
2023-02-06T09:47:33.461Z,0.81
2023-02-06T09:49:40.916Z,0.37
2023-02-06T09:52:22.468Z,0.45
2023-02-06T09:55:25.506Z,0.32
2023-02-06T09:57:49.076Z,0.08
2023-02-06T10:00:04.232Z,0.22
2023-02-06T10:02:39.605Z,0.64
2023-02-06T10:04:53.115Z,0.42
2023-02-06T10:07:08.250Z,0.68
2023-02-06T10:09:15.710Z,0.51
2023-02-06T10:11:38.889Z,0.70
2023-02-06T10:13:58.185Z,0.96
2023-02-06T10:16:23.765Z,1.13
2023-02-06T10:18:50.075Z,1.02
2023-02-06T10:20:58.454Z,1.06
2023-02-06T10:23:24.376Z,1.01
2023-02-06T10:25:32.910Z,1.12
2023-02-06T10:27:35.649Z,0.79
2023-02-06T10:29:37.634Z,0.68
2023-02-06T10:31:39.644Z,0.81
2023-02-06T10:34:10.985Z,0.59
2023-02-06T10:36:49.997Z,0.55
2023-02-06T10:39:14.652Z,0.64
2023-02-06T10:41:39.375Z,0.68
2023-02-06T10:43:49.743Z,0.72
2023-02-06T10:46:20.748Z,0.83
2023-02-06T10:48:37.066Z,0.35
2023-02-06T10:50:51.009Z,0.69
2023-02-06T10:52:53.453Z,0.46
2023-02-06T10:54:58.581Z,0.25
2023-02-06T10:57:00.847Z,-0.15
2023-02-06T10:59:07.466Z,0.23
2023-02-06T11:01:25.092Z,0.55
2023-02-06T11:03:30.759Z,0.52
2023-02-06T11:05:32.317Z,0.44
2023-02-06T11:07:41.003Z,0.45
2023-02-06T11:09:42.602Z,0.27
2023-02-06T11:11:48.393Z,0.10
2023-02-06T11:13:55.503Z,-0.08
2023-02-06T11:16:07.534Z,0.14
2023-02-06T11:18:17.417Z,0.13
2023-02-06T11:20:23.086Z,0.16
2023-02-06T11:22:31.243Z,-0.20
2023-02-06T11:24:36.533Z,0.25
2023-02-06T11:26:57.628Z,0.10
2023-02-06T11:29:09.581Z,-0.04
2023-02-06T11:31:11.319Z,0.15
2023-02-06T11:33:22.785Z,0.08
2023-02-06T11:35:31.026Z,0.40
2023-02-06T11:37:38.362Z,0.52
2023-02-06T11:39:39.807Z,0.51
2023-02-06T11:41:41.378Z,0.62
2023-02-06T11:43:42.858Z,0.43
2023-02-06T11:45:45.638Z,0.31
2023-02-06T11:47:47.359Z,0.01
2023-02-06T11:49:48.805Z,0.08
2023-02-06T11:51:52.145Z,0.55
2023-02-06T11:54:02.018Z,0.33
2023-02-06T11:56:05.345Z,0.17
2023-02-06T11:58:12.530Z,0.46
2023-02-06T12:00:23.079Z,0.52
2023-02-06T12:02:30.343Z,0.81
2023-02-06T12:04:36.874Z,0.64
2023-02-06T12:06:40.614Z,0.96
2023-02-06T12:08:49.270Z,0.79
2023-02-06T12:11:02.962Z,0.78
2023-02-06T12:13:09.213Z,0.76
2023-02-06T12:15:44.752Z,0.40
2023-02-06T12:17:52.672Z,0.77
2023-02-06T12:20:02.874Z,1.09
2023-02-06T12:22:17.683Z,0.67
2023-02-06T12:24:37.655Z,0.73
2023-02-06T12:26:40.537Z,0.47
2023-02-06T12:29:06.420Z,0.79
2023-02-06T12:31:13.947Z,1.03
2023-02-06T12:33:20.394Z,0.87
2023-02-06T12:35:33.213Z,0.88
2023-02-06T12:37:44.002Z,0.37
2023-02-06T12:39:45.509Z,0.27
2023-02-06T12:42:05.604Z,0.66
2023-02-06T12:44:16.578Z,0.72
2023-02-06T12:46:22.799Z,0.71
2023-02-06T12:48:50.453Z,0.11
2023-02-06T12:51:10.134Z,0.34
2023-02-06T12:53:33.983Z,0.24
2023-02-06T12:55:40.663Z,0.40
2023-02-06T12:57:42.570Z,0.22
2023-02-06T12:59:58.962Z,0.20
2023-02-06T13:02:18.916Z,0.36
2023-02-06T13:04:24.116Z,0.20
2023-02-06T13:06:29.762Z,-0.03
2023-02-06T13:08:42.220Z,0.17
2023-02-06T13:10:44.178Z,0.09
2023-02-06T13:12:54.152Z,-0.20
2023-02-06T13:14:58.306Z,-0.35
2023-02-06T13:17:07.218Z,-0.21
2023-02-06T13:19:38.824Z,-0.06
2023-02-06T13:21:40.316Z,-0.17
2023-02-06T13:24:03.759Z,-0.22
2023-02-06T13:26:05.429Z,-0.14
2023-02-06T13:28:22.518Z,0.04
2023-02-06T13:30:23.948Z,0.16
2023-02-06T13:32:41.211Z,0.08
2023-02-06T13:34:50.920Z,0.23
2023-02-06T13:36:53.391Z,0.24
2023-02-06T13:39:13.937Z,-0.22
2023-02-06T13:41:15.488Z,-0.32
2023-02-06T13:43:21.571Z,-0.44
2023-02-06T13:45:58.597Z,-0.35
2023-02-06T13:48:20.934Z,-0.38
2023-02-06T13:50:37.536Z,-0.43
2023-02-06T13:53:00.995Z,-0.53
2023-02-06T13:55:29.137Z,-0.18
2023-02-06T13:57:54.421Z,-0.36
2023-02-06T14:00:09.241Z,-0.44
2023-02-06T14:02:23.116Z,-0.41
2023-02-06T14:04:26.533Z,-0.63
2023-02-06T14:06:46.259Z,-0.46
2023-02-06T14:09:16.132Z,-0.44
2023-02-06T14:11:41.580Z,-0.28
2023-02-06T14:14:17.144Z,-0.53
2023-02-06T14:16:24.412Z,-0.66
2023-02-06T14:19:01.105Z,-0.42
2023-02-06T14:21:18.239Z,-0.54
2023-02-06T14:23:55.562Z,-0.41
2023-02-06T14:26:06.043Z,-0.59
2023-02-06T14:28:35.058Z,-0.55
2023-02-06T14:30:48.603Z,-0.73
2023-02-06T14:33:02.132Z,-0.79
2023-02-06T14:35:15.902Z,-0.74
2023-02-06T14:37:45.335Z,-0.65
2023-02-06T14:39:54.327Z,-0.68
2023-02-06T14:41:56.908Z,-0.71
2023-02-06T14:43:59.511Z,-0.67
2023-02-06T14:46:07.852Z,-0.60
2023-02-06T14:48:34.288Z,-0.64
2023-02-06T14:50:39.262Z,-0.69
2023-02-06T14:52:40.802Z,-0.74
2023-02-06T14:54:42.433Z,-1.10
2023-02-06T14:56:43.881Z,-0.93
2023-02-06T14:58:46.135Z,-1.10
2023-02-06T15:00:47.873Z,-1.37
2023-02-06T15:03:13.860Z,-1.39
2023-02-06T15:05:25.913Z,-1.20
2023-02-06T15:07:30.200Z,-1.21
2023-02-06T15:09:34.348Z,-1.19
2023-02-06T15:11:35.770Z,-1.22
2023-02-06T15:13:50.135Z,-1.28
2023-02-06T15:15:54.515Z,-1.43
2023-02-06T15:18:08.418Z,-1.49
2023-02-06T15:20:39.134Z,-1.49
2023-02-06T15:22:40.774Z,-1.59
2023-02-06T15:25:10.792Z,-1.76
2023-02-06T15:27:26.543Z,-1.67
2023-02-06T15:29:28.357Z,-1.78
2023-02-06T15:31:30.999Z,-1.72
2023-02-06T15:33:34.419Z,-1.66
2023-02-06T15:35:41.285Z,-1.84
2023-02-06T15:37:43.824Z,-1.81
2023-02-06T15:39:45.542Z,-2.06
2023-02-06T15:41:52.192Z,-2.04
2023-02-06T15:43:59.963Z,-2.05
2023-02-06T15:46:03.016Z,-2.47
2023-02-06T15:48:12.290Z,-2.39
2023-02-06T15:50:19.207Z,-2.22
2023-02-06T15:52:36.426Z,-2.23
2023-02-06T15:54:39.757Z,-2.21
2023-02-06T15:56:43.008Z,-2.31
2023-02-06T15:58:45.179Z,-2.59
2023-02-06T16:00:53.019Z,-2.40
2023-02-06T16:02:59.156Z,-2.53
2023-02-06T16:05:01.984Z,-2.25
2023-02-06T16:07:22.424Z,-2.34
2023-02-06T16:09:25.704Z,-2.35
2023-02-06T16:11:34.365Z,-2.42
2023-02-06T16:13:35.944Z,-2.51
2023-02-06T16:15:39.641Z,-2.52
2023-02-06T16:17:41.335Z,-2.50
2023-02-06T16:19:49.683Z,-2.50
2023-02-06T16:22:26.889Z,-2.47
2023-02-06T16:24:28.541Z,-2.54
2023-02-06T16:26:32.559Z,-2.72
2023-02-06T16:28:41.512Z,-2.84
2023-02-06T16:30:43.086Z,-3.13
2023-02-06T16:32:44.575Z,-3.49
2023-02-06T16:34:46.919Z,-3.59
2023-02-06T16:36:48.665Z,-3.56
2023-02-06T16:39:02.653Z,-3.59
2023-02-06T16:41:24.199Z,-3.68
2023-02-06T16:43:27.627Z,-3.72
2023-02-06T16:45:29.041Z,-3.58
2023-02-06T16:47:30.416Z,-3.66
2023-02-06T16:49:31.879Z,-3.57
2023-02-06T16:51:33.286Z,-3.45
2023-02-06T16:53:34.718Z,-3.62
2023-02-06T16:55:36.643Z,-3.56
2023-02-06T16:57:42.613Z,-3.46
2023-02-06T16:59:44.026Z,-3.66
2023-02-06T17:01:45.628Z,-3.81
2023-02-06T17:03:47.176Z,-3.67
2023-02-06T17:05:49.756Z,-3.67
2023-02-06T17:07:52.258Z,-3.72
2023-02-06T17:09:56.030Z,-3.73
2023-02-06T17:11:57.417Z,-3.83
2023-02-06T17:13:59.118Z,-3.77
2023-02-06T17:16:01.013Z,-3.91
2023-02-06T17:18:02.432Z,-3.94
2023-02-06T17:20:04.780Z,-3.80
2023-02-06T17:22:07.067Z,-4.00
2023-02-06T17:24:08.487Z,-3.82
2023-02-06T17:26:15.315Z,-3.80
2023-02-06T17:28:19.145Z,-3.81
2023-02-06T17:30:23.075Z,-3.86
2023-02-06T17:32:24.825Z,-3.90
2023-02-06T17:34:26.901Z,-3.97
2023-02-06T17:36:28.307Z,-4.23
2023-02-06T17:38:29.991Z,-4.13
2023-02-06T17:40:34.327Z,-4.26
2023-02-06T17:42:35.763Z,-4.49
2023-02-06T17:44:37.714Z,-4.46
2023-02-06T17:46:39.482Z,-4.23
2023-02-06T17:48:41.001Z,-4.39
2023-02-06T17:50:42.880Z,-4.36
2023-02-06T17:52:44.476Z,-4.45
2023-02-06T17:54:45.927Z,-4.39
2023-02-06T17:56:47.503Z,-4.54
2023-02-06T17:58:49.192Z,-4.48
2023-02-06T18:00:50.618Z,-4.57
2023-02-06T18:02:54.149Z,-4.55
2023-02-06T18:04:55.636Z,-4.57
2023-02-06T18:06:57.117Z,-4.47
2023-02-06T18:08:58.707Z,-4.63
2023-02-06T18:11:00.169Z,-4.61
2023-02-06T18:13:01.580Z,-4.57
2023-02-06T18:15:04.777Z,-4.55
2023-02-06T18:17:06.502Z,-4.63
2023-02-06T18:19:07.992Z,-4.42
2023-02-06T18:21:09.647Z,-4.60
2023-02-06T18:23:11.803Z,-4.51
2023-02-06T18:25:14.913Z,-4.68
2023-02-06T18:27:17.747Z,-4.61
2023-02-06T18:29:19.143Z,-4.58
2023-02-06T18:31:31.802Z,-4.70
2023-02-06T18:33:34.148Z,-4.94
2023-02-06T18:35:39.559Z,-4.94
2023-02-06T18:37:41.287Z,-4.67
2023-02-06T18:39:42.980Z,-4.70
2023-02-06T18:41:44.379Z,-4.63
2023-02-06T18:43:45.752Z,-4.72
2023-02-06T18:45:47.430Z,-4.80
2023-02-06T18:47:49.119Z,-4.49
2023-02-06T18:49:50.564Z,-4.47
2023-02-06T18:51:52.171Z,-4.88
2023-02-06T18:53:53.587Z,-4.90
2023-02-06T18:55:58.440Z,-4.91
2023-02-06T18:57:59.996Z,-4.91
2023-02-06T19:00:01.458Z,-4.97
2023-02-06T19:02:02.999Z,-5.03
2023-02-06T19:04:04.845Z,-5.03
2023-02-06T19:06:14.885Z,-5.18
2023-02-06T19:08:16.270Z,-5.03
2023-02-06T19:10:19.006Z,-5.23
2023-02-06T19:12:20.403Z,-5.02
2023-02-06T19:14:21.829Z,-5.20
2023-02-06T19:16:23.460Z,-5.25
2023-02-06T19:18:37.648Z,-5.32
2023-02-06T19:20:43.483Z,-5.23
2023-02-06T19:22:45.000Z,-5.27
2023-02-06T19:24:46.385Z,-5.36
2023-02-06T19:26:47.781Z,-5.53
2023-02-06T19:28:49.999Z,-5.33
2023-02-06T19:30:51.469Z,-5.36
2023-02-06T19:32:52.901Z,-5.40
2023-02-06T19:34:54.813Z,-5.48
2023-02-06T19:36:56.230Z,-5.44
2023-02-06T19:39:00.483Z,-5.50
2023-02-06T19:41:16.811Z,-5.42
2023-02-06T19:43:18.635Z,-5.52
2023-02-06T19:45:20.034Z,-5.26
2023-02-06T19:47:22.007Z,-5.34
2023-02-06T19:49:24.336Z,-5.19
2023-02-06T19:51:30.348Z,-5.27
2023-02-06T19:53:31.992Z,-5.37
2023-02-06T19:55:33.543Z,-5.52
2023-02-06T19:57:37.200Z,-5.51
2023-02-06T19:59:40.895Z,-5.58
2023-02-06T20:01:42.328Z,-5.64
2023-02-06T20:03:44.347Z,-5.79
2023-02-06T20:05:45.880Z,-5.70
2023-02-06T20:07:47.273Z,-5.68
2023-02-06T20:09:48.770Z,-5.69
2023-02-06T20:11:50.936Z,-5.70
2023-02-06T20:13:52.362Z,-5.80
2023-02-06T20:15:53.772Z,-5.68
2023-02-06T20:17:55.507Z,-5.84
2023-02-06T20:19:58.901Z,-5.75
2023-02-06T20:22:00.830Z,-5.79
2023-02-06T20:24:04.853Z,-5.79
2023-02-06T20:26:06.301Z,-5.82
2023-02-06T20:28:07.736Z,-5.77
2023-02-06T20:30:09.841Z,-5.91
2023-02-06T20:32:11.290Z,-5.76
2023-02-06T20:34:13.242Z,-5.80
2023-02-06T20:36:18.451Z,-5.69
2023-02-06T20:38:19.844Z,-5.78
2023-02-06T20:40:21.244Z,-5.90
2023-02-06T20:42:22.954Z,-5.81
2023-02-06T20:44:24.381Z,-5.66
2023-02-06T20:46:27.378Z,-5.85
2023-02-06T20:48:29.446Z,-5.64
2023-02-06T20:50:30.987Z,-5.66
2023-02-06T20:52:33.261Z,-5.64
2023-02-06T20:54:34.739Z,-5.78
2023-02-06T20:56:36.161Z,-5.65
2023-02-06T20:58:37.718Z,-5.75
2023-02-06T21:00:39.426Z,-5.63
2023-02-06T21:02:40.930Z,-5.54
2023-02-06T21:04:42.506Z,-5.67
2023-02-06T21:06:45.110Z,-5.74
2023-02-06T21:08:48.382Z,-5.55
2023-02-06T21:10:50.854Z,-5.97
2023-02-06T21:12:52.535Z,-6.19
2023-02-06T21:14:54.288Z,-6.17
2023-02-06T21:16:56.584Z,-5.92
2023-02-06T21:18:58.809Z,-6.00
2023-02-06T21:21:06.838Z,-6.10
2023-02-06T21:23:08.321Z,-5.98
2023-02-06T21:25:09.947Z,-6.00
2023-02-06T21:27:11.356Z,-5.97
2023-02-06T21:29:14.339Z,-6.21
2023-02-06T21:31:20.051Z,-6.20
2023-02-06T21:33:21.495Z,-6.27
2023-02-06T21:35:23.044Z,-6.28
2023-02-06T21:37:24.898Z,-6.25
2023-02-06T21:39:26.368Z,-6.23
2023-02-06T21:41:28.251Z,-6.46
2023-02-06T21:43:29.768Z,-6.50
2023-02-06T21:45:31.167Z,-6.30
2023-02-06T21:47:34.024Z,-6.35
2023-02-06T21:49:35.541Z,-6.57
2023-02-06T21:51:37.312Z,-6.49
2023-02-06T21:53:39.210Z,-6.42
2023-02-06T21:55:44.752Z,-6.44
2023-02-06T21:57:46.141Z,-6.30
2023-02-06T21:59:47.543Z,-6.11
2023-02-06T22:01:49.291Z,-6.47
2023-02-06T22:03:51.416Z,-5.85
2023-02-06T22:05:52.872Z,-5.77
2023-02-06T22:07:54.516Z,-5.77
2023-02-06T22:09:55.931Z,-5.93
2023-02-06T22:11:57.372Z,-5.75
2023-02-06T22:14:01.743Z,-6.11
2023-02-06T22:16:03.319Z,-5.76
2023-02-06T22:18:04.828Z,-5.68
2023-02-06T22:20:06.684Z,-5.59
2023-02-06T22:22:08.091Z,-5.52
2023-02-06T22:24:11.532Z,-5.41
2023-02-06T22:26:14.424Z,-5.35
2023-02-06T22:28:15.899Z,-5.58
2023-02-06T22:30:17.537Z,-5.24
2023-02-06T22:32:19.217Z,-5.62
2023-02-06T22:34:21.081Z,-5.40
2023-02-06T22:36:25.177Z,-5.29
2023-02-06T22:38:26.774Z,-5.04
2023-02-06T22:40:28.215Z,-5.12
2023-02-06T22:42:29.661Z,-4.97
2023-02-06T22:44:31.236Z,-5.05
2023-02-06T22:46:36.447Z,-4.75
2023-02-06T22:48:38.912Z,-4.89
2023-02-06T22:50:40.597Z,-4.85
2023-02-06T22:52:42.012Z,-5.12
2023-02-06T22:54:43.462Z,-4.64
2023-02-06T22:56:45.339Z,-4.88
2023-02-06T22:58:48.098Z,-4.85
2023-02-06T23:00:49.569Z,-4.92
2023-02-06T23:02:51.098Z,-4.78
2023-02-06T23:04:52.512Z,-4.55
2023-02-06T23:06:54.161Z,-4.85
2023-02-06T23:08:56.813Z,-4.63
2023-02-06T23:10:58.256Z,-4.82
2023-02-06T23:12:59.640Z,-4.73
2023-02-06T23:15:01.196Z,-4.68
2023-02-06T23:17:03.189Z,-4.95
2023-02-06T23:19:06.465Z,-4.67
2023-02-06T23:21:10.856Z,-4.51
2023-02-06T23:23:12.319Z,-4.45
2023-02-06T23:25:13.767Z,-4.71
2023-02-06T23:27:15.512Z,-4.45
2023-02-06T23:29:18.988Z,-4.50
2023-02-06T23:31:20.391Z,-4.36
2023-02-06T23:33:22.734Z,-4.66
2023-02-06T23:35:24.128Z,-4.38
2023-02-06T23:37:25.525Z,-4.53
2023-02-06T23:39:27.320Z,-4.26
2023-02-06T23:41:29.026Z,-4.62
2023-02-06T23:43:30.402Z,-4.53
2023-02-06T23:45:32.546Z,-4.25
2023-02-06T23:47:34.650Z,-4.13
2023-02-06T23:49:36.180Z,-4.19
2023-02-06T23:51:38.112Z,-4.30
2023-02-06T23:53:39.558Z,-4.34
2023-02-06T23:55:40.980Z,-4.68
2023-02-06T23:57:42.868Z,-4.35
2023-02-06T23:59:46.598Z,-4.32
